Meteopozuelo

Informes METAR próximos a MeteoPozuelo

 

LEVS - Cuatro Vientos (Madrid) España
Actualización: 13/05/2021 04:00
Despejado
Despejado
 Viento del ONO
Viento: ONO 6 km/h
Temperatura: 11°C
Punto de Rocío: 5°C
Humedad: 67%
Barómetro: 1018 hPa
Resumen: Despejado
Visibility: greater than 10 km
2021/05/13 02:00 LEVS 130200Z AUTO 30003KT 230V020 CAVOK 11/05 Q1018
LEGT - Getafe (Madrid ) España
Actualización: 12/05/2021 20:00
NOT Current
Despejado
Despejado
 Viento del O
Viento: O 26 km/h
Temperatura: 19°C
Punto de Rocío: 6°C
Humedad: 43%
Barómetro: 1017 hPa
Resumen: Despejado
Visibility: greater than 10 km
2021/05/12 18:00 LEGT 121800Z 26014KT 230V290 CAVOK 19/06 Q1017
 
LEMD - Barajas (Madrid) España
Actualización: 13/05/2021 04:00
Despejado
Despejado
 Viento del ONO
Viento: ONO 9 km/h
Temperatura: 12°C
Punto de Rocío: 3°C
Humedad: 54%
Barómetro: 1018 hPa
Resumen: Despejado
Visibility: greater than 10 km
2021/05/13 02:00 LEMD 130200Z 29005KT CAVOK 12/03 Q1018 NOSIG
LETO - Torrejon de Ardoz (Madrid) España
Actualización: 13/05/2021 03:30
Despejado
Despejado
 Viento del NNE
Viento: NNE 4 km/h
Temperatura: 8°C
Punto de Rocío: 3°C
Humedad: 71%
Barómetro: 1018 hPa
Resumen: Despejado
Visibility: greater than 10 km
2021/05/13 01:30 LETO 130130Z 03002KT CAVOK 08/03 Q1018 NOSIG
 
LECV - Colmenar Viejo (Madrid)
Actualización: 12/05/2021 20:00
NOT Current
Parcialmente nuboso
Parcialmente nuboso
 Viento del O
Viento: O 19 km/h
Temperatura: 15°C
Punto de Rocío: 2°C
Humedad: 42%
Barómetro: 1018 hPa
Clouds: Parcialmente nuboso
Visibility: 10 km
Cloud details: Parcialmente nuboso 1676 m
2021/05/12 18:00 LECV 121800Z 28010KT 9999 SCT055 15/02 Q1018